createdAt,value
2018-10-02T00:01:27.911Z,5.60
2018-10-02T00:03:55.807Z,5.60
2018-10-02T00:06:23.654Z,5.60
2018-10-02T00:08:51.366Z,5.60
2018-10-02T00:11:24.608Z,5.60
2018-10-02T00:13:57.713Z,5.60
2018-10-02T00:16:25.610Z,5.60
2018-10-02T00:18:53.335Z,5.50
2018-10-02T00:21:21.249Z,5.50
2018-10-02T00:23:48.955Z,5.60
2018-10-02T00:26:16.720Z,5.60
2018-10-02T00:28:44.630Z,5.70
2018-10-02T00:31:12.512Z,5.70
2018-10-02T00:33:40.416Z,5.80
2018-10-02T00:36:08.486Z,5.80
2018-10-02T00:38:36.383Z,5.90
2018-10-02T00:41:04.126Z,6.00
2018-10-02T00:43:31.858Z,6.10
2018-10-02T00:45:59.676Z,6.10
2018-10-02T00:48:27.478Z,6.00
2018-10-02T00:50:55.458Z,6.00
2018-10-02T00:53:23.465Z,5.90
2018-10-02T00:55:51.221Z,5.80
2018-10-02T00:58:19.051Z,5.90
2018-10-02T01:00:46.874Z,6.00
2018-10-02T01:03:14.677Z,5.90
2018-10-02T01:05:42.490Z,5.80
2018-10-02T01:08:10.242Z,5.80
2018-10-02T01:10:38.214Z,5.90
2018-10-02T01:13:06.828Z,5.90
2018-10-02T01:15:34.547Z,5.90
2018-10-02T01:18:02.290Z,5.90
2018-10-02T01:20:30.238Z,5.90
2018-10-02T01:22:57.987Z,6.00
2018-10-02T01:25:25.735Z,6.00
2018-10-02T01:27:53.730Z,6.00
2018-10-02T01:30:21.586Z,6.00
2018-10-02T01:32:49.325Z,6.00
2018-10-02T01:35:17.091Z,6.00
2018-10-02T01:37:45.179Z,6.00
2018-10-02T01:40:13.037Z,6.00
2018-10-02T01:42:40.774Z,6.00
2018-10-02T01:45:09.071Z,6.00
2018-10-02T01:47:36.858Z,6.10
2018-10-02T01:50:04.844Z,6.10
2018-10-02T01:52:32.850Z,6.20
2018-10-02T01:55:00.581Z,6.20
2018-10-02T01:57:28.730Z,6.20
2018-10-02T01:59:56.634Z,6.20
2018-10-02T02:02:24.378Z,6.30
2018-10-02T02:04:52.393Z,6.40
2018-10-02T02:07:20.298Z,6.40
2018-10-02T02:09:48.031Z,6.30
2018-10-02T02:12:15.850Z,6.30
2018-10-02T02:14:43.651Z,6.30
2018-10-02T02:17:11.536Z,6.30
2018-10-02T02:19:39.504Z,6.30
2018-10-02T02:22:07.371Z,6.30
2018-10-02T02:24:35.139Z,6.20
2018-10-02T02:27:02.999Z,6.20
2018-10-02T02:29:30.750Z,6.20
2018-10-02T02:31:58.532Z,6.10
2018-10-02T02:34:26.391Z,6.10
2018-10-02T02:36:54.288Z,6.10
2018-10-02T02:39:22.024Z,6.00
2018-10-02T02:41:49.874Z,6.00
2018-10-02T02:44:17.739Z,6.00
2018-10-02T02:46:45.543Z,6.00
2018-10-02T02:49:18.654Z,5.90
2018-10-02T02:51:46.567Z,5.80
2018-10-02T02:54:14.366Z,5.80
2018-10-02T02:56:42.385Z,5.70
2018-10-02T02:59:10.154Z,5.70
2018-10-02T03:01:37.934Z,5.70
2018-10-02T03:04:06.001Z,5.70
2018-10-02T03:06:33.759Z,5.70
2018-10-02T03:09:01.517Z,5.80
2018-10-02T03:11:29.305Z,5.70
2018-10-02T03:13:57.254Z,5.70
2018-10-02T03:16:25.329Z,5.70
2018-10-02T03:18:53.103Z,5.70
2018-10-02T03:21:20.951Z,5.80
2018-10-02T03:23:48.666Z,5.90
2018-10-02T03:26:16.434Z,5.90
2018-10-02T03:28:44.151Z,5.90
2018-10-02T03:31:12.019Z,5.90
2018-10-02T03:33:39.796Z,6.00
2018-10-02T03:36:07.639Z,6.10
2018-10-02T03:38:35.486Z,6.20
2018-10-02T03:41:03.337Z,6.30
2018-10-02T03:43:31.099Z,6.40
2018-10-02T03:45:58.827Z,6.40
2018-10-02T03:48:26.781Z,6.40
2018-10-02T03:50:54.550Z,6.50
2018-10-02T03:53:22.382Z,6.50
2018-10-02T03:55:50.143Z,6.60
2018-10-02T03:58:17.944Z,6.60
2018-10-02T04:00:45.671Z,6.60
2018-10-02T04:03:13.446Z,6.60
2018-10-02T04:05:41.369Z,6.70
2018-10-02T04:08:09.139Z,6.70
2018-10-02T04:10:37.953Z,6.70
2018-10-02T04:13:05.809Z,6.70
2018-10-02T04:15:33.745Z,6.70
2018-10-02T04:18:01.824Z,6.70
2018-10-02T04:20:30.318Z,6.80
2018-10-02T04:22:58.092Z,6.80
2018-10-02T04:25:25.889Z,6.70
2018-10-02T04:27:53.741Z,6.80
2018-10-02T04:30:21.514Z,6.80
2018-10-02T04:32:49.286Z,6.90
2018-10-02T04:35:17.149Z,6.90
2018-10-02T04:37:45.122Z,6.90
2018-10-02T04:40:12.874Z,6.90
2018-10-02T04:42:41.136Z,6.90
2018-10-02T04:45:08.898Z,7.00
2018-10-02T04:47:36.680Z,7.00
2018-10-02T04:50:04.769Z,7.00
2018-10-02T04:52:32.618Z,7.00
2018-10-02T04:55:00.620Z,7.00
2018-10-02T04:57:28.354Z,7.00
2018-10-02T04:59:56.099Z,7.10
2018-10-02T05:02:23.951Z,7.20
2018-10-02T05:04:51.888Z,7.20
2018-10-02T05:07:19.940Z,7.20
2018-10-02T05:09:47.673Z,7.20
2018-10-02T05:12:15.655Z,7.30
2018-10-02T05:14:43.435Z,7.30
2018-10-02T05:17:11.281Z,7.40
2018-10-02T05:19:39.356Z,7.40
2018-10-02T05:22:07.235Z,7.40
2018-10-02T05:24:34.991Z,7.50
2018-10-02T05:27:02.846Z,7.50
2018-10-02T05:29:30.542Z,7.50
2018-10-02T05:31:58.508Z,7.50
2018-10-02T05:34:26.464Z,7.50
2018-10-02T05:36:54.318Z,7.50
2018-10-02T05:39:22.084Z,7.50
2018-10-02T05:41:49.992Z,7.50
2018-10-02T05:44:17.877Z,7.60
2018-10-02T05:46:52.171Z,7.60
2018-10-02T05:49:20.831Z,7.60
2018-10-02T05:51:48.620Z,7.60
2018-10-02T05:54:16.448Z,7.60
2018-10-02T05:56:44.430Z,7.70
2018-10-02T05:59:12.498Z,7.70
2018-10-02T06:01:40.342Z,7.70
2018-10-02T06:04:08.161Z,7.80
2018-10-02T06:06:36.286Z,7.80
2018-10-02T06:09:06.407Z,7.80
2018-10-02T06:11:34.247Z,7.80
2018-10-02T06:14:01.993Z,7.80
2018-10-02T06:16:29.728Z,7.80
2018-10-02T06:18:57.685Z,7.80
2018-10-02T06:21:25.649Z,7.80
2018-10-02T06:23:53.411Z,7.80
2018-10-02T06:26:21.237Z,7.80
2018-10-02T06:28:49.255Z,7.80
2018-10-02T06:31:17.087Z,7.80
2018-10-02T06:33:45.020Z,7.80
2018-10-02T06:36:12.786Z,7.80
2018-10-02T06:38:40.942Z,7.90
2018-10-02T06:41:08.852Z,7.90
2018-10-02T06:43:36.619Z,7.90
2018-10-02T06:46:04.274Z,8.00
2018-10-02T06:48:32.100Z,7.90
2018-10-02T06:51:00.119Z,7.90
2018-10-02T06:53:27.863Z,7.90
2018-10-02T06:55:55.610Z,7.90
2018-10-02T06:58:23.376Z,7.90
2018-10-02T07:00:51.163Z,7.90
2018-10-02T07:03:18.914Z,7.90
2018-10-02T07:05:46.672Z,7.90
2018-10-02T07:08:14.550Z,7.80
2018-10-02T07:10:42.298Z,7.90
2018-10-02T07:13:10.082Z,7.90
2018-10-02T07:15:37.804Z,7.90
2018-10-02T07:18:05.851Z,7.90
2018-10-02T07:20:34.057Z,7.90
2018-10-02T07:23:01.737Z,8.00
2018-10-02T07:25:29.734Z,8.00
2018-10-02T07:27:57.708Z,8.10
2018-10-02T07:30:25.388Z,8.10
2018-10-02T07:32:53.187Z,8.10
2018-10-02T07:35:21.007Z,8.20
2018-10-02T07:37:48.750Z,8.10
2018-10-02T07:40:16.566Z,8.20
2018-10-02T07:42:44.419Z,8.20
2018-10-02T07:45:12.240Z,8.20
2018-10-02T07:47:40.117Z,8.20
2018-10-02T07:50:07.816Z,8.20
2018-10-02T07:52:36.066Z,8.20
2018-10-02T07:55:03.970Z,8.10
2018-10-02T07:57:31.825Z,8.20
2018-10-02T07:59:59.555Z,8.20
2018-10-02T08:02:27.498Z,8.20
2018-10-02T08:04:55.324Z,8.20
2018-10-02T08:07:23.153Z,8.30
2018-10-02T08:09:50.969Z,8.30
2018-10-02T08:12:19.025Z,8.30
2018-10-02T08:14:46.796Z,8.30
2018-10-02T08:17:14.527Z,8.30
2018-10-02T08:19:42.407Z,8.30
2018-10-02T08:22:10.146Z,8.30
2018-10-02T08:24:38.135Z,8.30
2018-10-02T08:27:06.060Z,8.20
2018-10-02T08:29:33.984Z,8.20
2018-10-02T08:32:01.802Z,8.10
2018-10-02T08:34:29.648Z,8.10
2018-10-02T08:36:58.053Z,8.10
2018-10-02T08:39:25.991Z,8.10
2018-10-02T08:41:53.824Z,8.20
2018-10-02T08:44:21.813Z,8.20
2018-10-02T08:46:49.527Z,8.20
2018-10-02T08:49:17.345Z,8.10
2018-10-02T08:51:45.452Z,8.10
2018-10-02T08:54:13.349Z,8.10
2018-10-02T08:56:41.099Z,8.20
2018-10-02T08:59:08.967Z,8.20
2018-10-02T09:01:36.962Z,8.10
2018-10-02T09:04:04.770Z,8.10
2018-10-02T09:06:32.771Z,8.10
2018-10-02T09:09:00.648Z,8.10
2018-10-02T09:11:28.850Z,8.10
2018-10-02T09:13:56.830Z,8.10
2018-10-02T09:16:24.611Z,8.20
2018-10-02T09:18:52.366Z,8.20
2018-10-02T09:21:20.153Z,8.10
2018-10-02T09:23:48.060Z,8.20
2018-10-02T09:26:15.835Z,8.20
2018-10-02T09:28:43.824Z,8.20
2018-10-02T09:31:17.102Z,8.30
2018-10-02T09:33:50.353Z,8.30
2018-10-02T09:36:23.746Z,8.30
2018-10-02T09:38:56.815Z,8.30
2018-10-02T09:42:34.038Z,8.30
2018-10-02T09:45:01.890Z,8.30
2018-10-02T09:47:29.834Z,8.40
2018-10-02T09:49:57.816Z,8.40
2018-10-02T09:52:25.628Z,8.50
2018-10-02T09:54:53.572Z,8.40
2018-10-02T09:57:21.319Z,8.50
2018-10-02T09:59:49.102Z,8.50
2018-10-02T10:02:22.437Z,8.50
2018-10-02T10:04:51.680Z,8.60
2018-10-02T10:07:19.491Z,8.60
2018-10-02T10:09:47.394Z,8.70
2018-10-02T10:12:15.177Z,8.70
2018-10-02T10:14:43.209Z,8.70
2018-10-02T10:17:11.101Z,8.70
2018-10-02T10:19:38.798Z,8.70
2018-10-02T10:22:06.704Z,8.70
2018-10-02T10:24:34.438Z,8.80
2018-10-02T10:27:02.480Z,8.80
2018-10-02T10:29:30.307Z,8.70
2018-10-02T10:31:58.354Z,8.70
2018-10-02T10:34:26.399Z,8.80
2018-10-02T10:36:54.226Z,8.80
2018-10-02T10:39:22.102Z,8.80
2018-10-02T10:41:50.157Z,8.90
2018-10-02T10:44:18.057Z,8.80
2018-10-02T10:46:46.050Z,8.80
2018-10-02T10:49:14.029Z,8.80
2018-10-02T10:51:42.016Z,8.90
2018-10-02T10:54:09.778Z,8.90
2018-10-02T10:56:37.717Z,8.80
2018-10-02T10:59:05.638Z,8.80
2018-10-02T11:01:33.992Z,8.80
2018-10-02T11:04:01.932Z,8.80
2018-10-02T11:06:29.927Z,8.80
2018-10-02T11:08:57.738Z,8.90
2018-10-02T11:11:25.571Z,9.00
2018-10-02T11:13:53.512Z,9.00
2018-10-02T11:16:21.373Z,9.10
2018-10-02T11:18:49.220Z,9.10
2018-10-02T11:21:17.427Z,9.20
2018-10-02T11:23:45.186Z,9.10
2018-10-02T11:26:13.182Z,9.10
2018-10-02T11:28:41.228Z,9.10
2018-10-02T11:31:09.352Z,9.10
2018-10-02T11:33:37.247Z,9.10
2018-10-02T11:36:05.081Z,9.20
2018-10-02T11:38:32.877Z,9.20
2018-10-02T11:41:00.877Z,9.10
2018-10-02T11:43:28.828Z,9.10
2018-10-02T11:45:56.905Z,9.10
2018-10-02T11:48:24.781Z,9.10
2018-10-02T11:50:52.627Z,9.10
2018-10-02T11:53:20.599Z,9.20
2018-10-02T11:55:48.481Z,9.20
2018-10-02T11:58:16.223Z,9.20
2018-10-02T12:00:44.118Z,9.20
2018-10-02T12:03:12.337Z,9.30
2018-10-02T12:05:40.196Z,9.40
2018-10-02T12:08:08.003Z,9.50
2018-10-02T12:10:35.999Z,9.50
2018-10-02T12:13:03.938Z,9.50
2018-10-02T12:15:31.634Z,9.60
2018-10-02T12:17:59.491Z,9.60
2018-10-02T12:20:27.521Z,9.70
2018-10-02T12:22:55.300Z,9.80
2018-10-02T12:25:23.124Z,9.90
2018-10-02T12:27:51.203Z,9.90
2018-10-02T12:30:19.091Z,9.90
2018-10-02T12:32:46.899Z,9.90
2018-10-02T12:35:15.278Z,10.00
2018-10-02T12:37:43.158Z,10.00
2018-10-02T12:40:10.945Z,10.10
2018-10-02T12:42:38.937Z,10.10
2018-10-02T12:45:07.161Z,10.10
2018-10-02T12:47:35.133Z,10.20
2018-10-02T12:50:03.102Z,10.30
2018-10-02T12:52:31.215Z,10.30
2018-10-02T12:54:58.949Z,10.20
2018-10-02T12:57:27.496Z,10.20
2018-10-02T12:59:55.327Z,10.10
2018-10-02T13:02:23.317Z,10.10
2018-10-02T13:04:51.239Z,10.10
2018-10-02T13:07:19.251Z,10.20
2018-10-02T13:09:47.095Z,10.30
2018-10-02T13:12:14.859Z,10.40
2018-10-02T13:14:42.966Z,10.40
2018-10-02T13:17:11.148Z,10.50
2018-10-02T13:19:39.132Z,10.60
2018-10-02T13:22:06.981Z,10.60
2018-10-02T13:24:35.405Z,10.60
2018-10-02T13:27:03.542Z,10.50
2018-10-02T13:29:31.675Z,10.50
2018-10-02T13:31:59.576Z,10.60
2018-10-02T13:34:27.731Z,10.60
2018-10-02T13:36:55.911Z,10.50
2018-10-02T13:39:23.736Z,10.60
2018-10-02T13:41:51.779Z,10.60
2018-10-02T13:44:19.787Z,10.50
2018-10-02T13:46:47.576Z,10.30
2018-10-02T13:49:15.528Z,10.10
2018-10-02T13:51:43.471Z,10.10
2018-10-02T13:54:11.382Z,10.10
2018-10-02T13:56:39.315Z,10.20
2018-10-02T13:59:07.180Z,10.30
2018-10-02T14:01:35.042Z,10.20
2018-10-02T14:04:03.107Z,10.30
2018-10-02T14:06:31.170Z,10.40
2018-10-02T14:08:59.297Z,10.40
2018-10-02T14:11:27.222Z,10.30
2018-10-02T14:13:55.107Z,10.30
2018-10-02T14:16:23.089Z,10.30
2018-10-02T14:18:50.851Z,10.30
2018-10-02T14:21:18.644Z,10.30
2018-10-02T14:23:46.957Z,10.40
2018-10-02T14:26:14.956Z,10.50
2018-10-02T14:28:43.085Z,10.40
2018-10-02T14:31:10.913Z,10.50
2018-10-02T14:33:39.095Z,10.40
2018-10-02T14:36:06.925Z,10.50
2018-10-02T14:38:35.070Z,10.50
2018-10-02T14:41:02.953Z,10.50
2018-10-02T14:43:30.859Z,10.50
2018-10-02T14:45:59.436Z,10.50
2018-10-02T14:48:27.387Z,10.60
2018-10-02T14:50:55.379Z,10.60
2018-10-02T14:53:23.181Z,10.70
2018-10-02T14:55:51.362Z,10.70
2018-10-02T14:58:19.275Z,10.80
2018-10-02T15:00:47.280Z,10.80
2018-10-02T15:03:15.268Z,10.90
2018-10-02T15:05:43.674Z,10.90
2018-10-02T15:08:11.609Z,10.90
2018-10-02T15:10:39.502Z,10.90
2018-10-02T15:13:07.496Z,10.80
2018-10-02T15:15:35.539Z,10.80
2018-10-02T15:18:03.451Z,10.80
2018-10-02T15:20:31.533Z,10.70
2018-10-02T15:22:59.404Z,10.80
2018-10-02T15:25:27.333Z,10.80
2018-10-02T15:27:55.131Z,10.80
2018-10-02T15:30:23.130Z,10.80
2018-10-02T15:32:50.994Z,10.80
2018-10-02T15:35:18.997Z,10.90
2018-10-02T15:37:46.981Z,10.80
2018-10-02T15:40:14.985Z,10.90
2018-10-02T15:42:42.758Z,11.00
2018-10-02T15:45:10.638Z,11.10
2018-10-02T15:47:38.662Z,11.10
2018-10-02T15:50:06.710Z,11.20
2018-10-02T15:52:34.564Z,11.30
2018-10-02T15:55:02.484Z,11.30
2018-10-02T15:57:30.504Z,11.40
2018-10-02T15:59:58.456Z,11.40
2018-10-02T16:02:26.638Z,11.50
2018-10-02T16:04:54.697Z,11.50
2018-10-02T16:07:22.600Z,11.50
2018-10-02T16:09:50.579Z,11.70
2018-10-02T16:12:18.501Z,11.70
2018-10-02T16:14:46.402Z,11.80
2018-10-02T16:17:14.316Z,11.80
2018-10-02T16:19:42.396Z,11.70
2018-10-02T16:22:10.296Z,11.70
2018-10-02T16:24:38.251Z,11.70
2018-10-02T16:27:06.319Z,11.80
2018-10-02T16:29:34.197Z,11.90
2018-10-02T16:32:02.067Z,11.90
2018-10-02T16:34:29.958Z,12.00
2018-10-02T16:36:57.748Z,12.00
2018-10-02T16:39:25.652Z,12.00
2018-10-02T16:41:53.661Z,12.00
2018-10-02T16:44:21.501Z,12.00
2018-10-02T16:46:49.390Z,12.00
2018-10-02T16:49:17.237Z,12.10
2018-10-02T16:51:45.110Z,12.10
2018-10-02T16:54:13.051Z,12.10
2018-10-02T16:56:41.251Z,12.10
2018-10-02T16:59:09.445Z,12.10
2018-10-02T17:01:37.436Z,12.10
2018-10-02T17:04:05.544Z,12.10
2018-10-02T17:06:33.439Z,12.10
2018-10-02T17:09:01.360Z,12.20
2018-10-02T17:11:29.593Z,12.20
2018-10-02T17:13:57.582Z,12.20
2018-10-02T17:16:25.607Z,12.20
2018-10-02T17:18:53.422Z,12.20
2018-10-02T17:21:21.388Z,12.20
2018-10-02T17:23:49.476Z,12.20
2018-10-02T17:26:17.489Z,12.20
2018-10-02T17:28:45.472Z,12.20
2018-10-02T17:31:13.429Z,12.20
2018-10-02T17:33:41.926Z,12.20
2018-10-02T17:36:10.052Z,12.10
2018-10-02T17:38:38.424Z,12.10
2018-10-02T17:41:06.998Z,12.10
2018-10-02T17:43:35.281Z,12.10
2018-10-02T17:46:03.296Z,12.10
2018-10-02T17:48:31.425Z,12.00
2018-10-02T17:50:59.805Z,12.00
2018-10-02T17:53:27.727Z,12.00
2018-10-02T17:55:55.962Z,12.00
2018-10-02T17:58:23.841Z,12.00
2018-10-02T18:00:52.136Z,12.00
2018-10-02T18:03:20.166Z,12.00
2018-10-02T18:05:48.330Z,12.00
2018-10-02T18:08:16.356Z,12.00
2018-10-02T18:10:44.476Z,12.00
2018-10-02T18:13:12.856Z,12.00
2018-10-02T18:15:41.007Z,12.00
2018-10-02T18:18:09.015Z,12.00
2018-10-02T18:20:37.164Z,12.00
2018-10-02T18:23:05.323Z,12.00
2018-10-02T18:25:33.337Z,12.00
2018-10-02T18:28:01.571Z,12.00
2018-10-02T18:30:29.668Z,12.00
2018-10-02T18:32:57.969Z,12.00
2018-10-02T18:35:26.171Z,12.00
2018-10-02T18:37:54.502Z,12.00
2018-10-02T18:40:22.418Z,11.90
2018-10-02T18:42:50.775Z,11.90
2018-10-02T18:45:19.000Z,11.90
2018-10-02T18:47:47.247Z,11.80
2018-10-02T18:50:15.316Z,11.80
2018-10-02T18:52:43.554Z,11.80
2018-10-02T18:55:11.712Z,11.70
2018-10-02T18:57:40.085Z,11.70
2018-10-02T19:00:08.487Z,11.70
2018-10-02T19:02:36.640Z,11.70
2018-10-02T19:05:04.709Z,11.60
2018-10-02T19:07:33.203Z,11.70
2018-10-02T19:10:01.803Z,11.70
2018-10-02T19:12:30.271Z,11.60
2018-10-02T19:14:58.852Z,11.60
2018-10-02T19:17:27.570Z,11.60
2018-10-02T19:20:01.037Z,11.60
2018-10-02T19:22:29.817Z,11.60
2018-10-02T19:25:02.467Z,11.60
2018-10-02T19:27:30.664Z,11.60
2018-10-02T19:30:04.030Z,11.60
2018-10-02T19:32:32.452Z,11.70
2018-10-02T19:35:00.453Z,11.70
2018-10-02T19:37:33.873Z,11.70
2018-10-02T19:40:01.979Z,11.70
2018-10-02T19:42:30.497Z,11.60
2018-10-02T19:45:03.094Z,11.60
2018-10-02T19:47:31.406Z,11.60
2018-10-02T19:49:59.826Z,11.60
2018-10-02T19:52:28.150Z,11.60
2018-10-02T19:54:56.159Z,11.60
2018-10-02T19:57:24.505Z,11.60
2018-10-02T19:59:52.598Z,11.60
2018-10-02T20:02:20.557Z,11.60
2018-10-02T20:04:48.688Z,11.60
2018-10-02T20:07:16.698Z,11.70
2018-10-02T20:09:44.690Z,11.70
2018-10-02T20:12:12.874Z,11.80
2018-10-02T20:14:40.908Z,11.80
2018-10-02T20:17:08.956Z,11.80
2018-10-02T20:19:37.060Z,11.80
2018-10-02T20:22:05.302Z,11.80
2018-10-02T20:24:33.382Z,11.80
2018-10-02T20:27:01.550Z,11.80
2018-10-02T20:29:29.565Z,11.80
2018-10-02T20:31:57.635Z,11.80
2018-10-02T20:34:25.894Z,11.80
2018-10-02T20:36:54.158Z,11.80
2018-10-02T20:39:22.174Z,11.90
2018-10-02T20:41:50.272Z,11.90
2018-10-02T20:44:18.246Z,11.90
2018-10-02T20:46:46.234Z,11.90
2018-10-02T20:49:14.325Z,11.90
2018-10-02T20:51:42.410Z,11.90
2018-10-02T20:54:10.278Z,11.90
2018-10-02T20:56:38.222Z,11.90
2018-10-02T20:59:06.225Z,11.90
2018-10-02T21:01:34.150Z,11.80
2018-10-02T21:04:02.268Z,11.80
2018-10-02T21:06:30.207Z,11.80
2018-10-02T21:08:58.169Z,11.80
2018-10-02T21:11:26.279Z,11.80
2018-10-02T21:13:54.136Z,11.80
2018-10-02T21:16:22.303Z,11.80
2018-10-02T21:18:50.346Z,11.80
2018-10-02T21:21:18.425Z,11.80
2018-10-02T21:23:46.783Z,11.80
2018-10-02T21:26:14.860Z,11.90
2018-10-02T21:28:42.823Z,11.90
2018-10-02T21:31:10.657Z,11.90
2018-10-02T21:33:38.881Z,11.90
2018-10-02T21:36:06.956Z,11.90
2018-10-02T21:38:35.042Z,11.90
2018-10-02T21:41:03.009Z,11.80
2018-10-02T21:43:30.993Z,11.90
2018-10-02T21:45:58.875Z,11.90
2018-10-02T21:48:27.221Z,11.90
2018-10-02T21:50:55.266Z,11.90
2018-10-02T21:53:23.227Z,11.90
2018-10-02T21:55:51.478Z,11.90
2018-10-02T21:58:19.638Z,11.90
2018-10-02T22:00:47.587Z,11.90
2018-10-02T22:03:15.616Z,11.90
2018-10-02T22:05:43.492Z,11.80
2018-10-02T22:08:11.460Z,11.80
2018-10-02T22:10:39.722Z,11.90
2018-10-02T22:13:07.603Z,11.80
2018-10-02T22:15:36.500Z,11.90
2018-10-02T22:18:04.373Z,11.90
2018-10-02T22:20:32.451Z,11.90
2018-10-02T22:23:00.700Z,11.90
2018-10-02T22:25:28.625Z,11.90
2018-10-02T22:27:56.548Z,11.80
2018-10-02T22:30:24.356Z,11.80
2018-10-02T22:32:52.366Z,11.80
2018-10-02T22:35:20.200Z,11.90
2018-10-02T22:37:47.990Z,11.80
2018-10-02T22:40:15.763Z,11.80
2018-10-02T22:42:43.627Z,11.80
2018-10-02T22:45:11.481Z,11.80
2018-10-02T22:47:39.563Z,11.80
2018-10-02T22:50:07.368Z,11.70
2018-10-02T22:52:35.299Z,11.70
2018-10-02T22:55:03.366Z,11.70
2018-10-02T22:57:31.239Z,11.80
2018-10-02T22:59:59.291Z,11.70
2018-10-02T23:02:27.214Z,11.70
2018-10-02T23:04:55.005Z,11.80
2018-10-02T23:07:22.963Z,11.80
2018-10-02T23:09:50.821Z,11.80
2018-10-02T23:12:18.587Z,11.80
2018-10-02T23:14:46.409Z,11.80
2018-10-02T23:17:14.218Z,11.80
2018-10-02T23:19:42.020Z,11.80
2018-10-02T23:22:09.989Z,11.80
2018-10-02T23:24:37.944Z,11.80
2018-10-02T23:27:05.751Z,11.80
2018-10-02T23:29:33.526Z,11.80
2018-10-02T23:32:01.307Z,11.80
2018-10-02T23:34:29.120Z,11.80
2018-10-02T23:36:57.407Z,11.90
2018-10-02T23:39:26.319Z,11.90
2018-10-02T23:41:54.150Z,11.90
2018-10-02T23:44:21.914Z,11.90
2018-10-02T23:46:49.867Z,11.90
2018-10-02T23:49:17.643Z,11.90
2018-10-02T23:51:45.374Z,11.90
2018-10-02T23:54:13.132Z,11.90
2018-10-02T23:56:41.004Z,11.90
2018-10-02T23:59:08.805Z,11.90
